createdAt,value
2022-10-23T00:00:01.344Z,23.3
2022-10-23T00:15:02.184Z,23.3
2022-10-23T00:30:04.347Z,23.3
2022-10-23T00:45:01.237Z,23.2
2022-10-23T01:00:04.612Z,23.2
2022-10-23T01:15:01.534Z,23.2
2022-10-23T01:30:05.403Z,23.2
2022-10-23T01:45:05.073Z,23.1
2022-10-23T02:00:03.279Z,23.1
2022-10-23T02:15:03.347Z,23.1
2022-10-23T02:30:03.329Z,23.1
2022-10-23T02:45:04.404Z,23.1
2022-10-23T03:00:04.313Z,23.1
2022-10-23T03:15:03.188Z,23.1
2022-10-23T03:30:05.204Z,23
2022-10-23T03:45:01.507Z,23.1
2022-10-23T04:00:02.265Z,23
2022-10-23T04:15:05.378Z,23
2022-10-23T04:30:05.094Z,23
2022-10-23T04:45:03.411Z,22.9
2022-10-23T05:00:04.488Z,22.9
2022-10-23T05:15:01.375Z,22.9
2022-10-23T05:30:02.210Z,22.9
2022-10-23T05:45:03.354Z,22.9
2022-10-23T06:00:01.422Z,23
2022-10-23T06:15:05.170Z,23
2022-10-23T06:30:04.551Z,23.1
2022-10-23T06:45:01.353Z,23
2022-10-23T07:00:02.215Z,23.1
2022-10-23T07:15:04.347Z,23.1
2022-10-23T07:30:01.209Z,23.2
2022-10-23T07:45:05.606Z,23.3
2022-10-23T08:00:01.344Z,23.5
2022-10-23T08:15:03.175Z,23.6
2022-10-23T08:30:04.190Z,23.6
2022-10-23T08:45:01.103Z,23.7
2022-10-23T09:00:02.434Z,23.6
2022-10-23T09:15:05.126Z,23.6
2022-10-23T09:30:03.438Z,23.5
2022-10-23T09:45:01.548Z,23.5
2022-10-23T10:00:01.306Z,23.3
2022-10-23T10:15:04.652Z,23.2
2022-10-23T10:30:01.553Z,23.1
2022-10-23T10:45:04.332Z,23.1
2022-10-23T11:00:04.238Z,23.1
2022-10-23T11:15:01.139Z,23.1
2022-10-23T11:30:02.478Z,23.1
2022-10-23T11:45:01.592Z,23.1
2022-10-23T12:00:05.338Z,23.1
2022-10-23T12:15:01.609Z,23.1
2022-10-23T12:30:04.413Z,23.2
2022-10-23T12:45:04.274Z,23.3
2022-10-23T13:00:03.181Z,23.3
2022-10-23T13:15:01.227Z,23.4
2022-10-23T13:30:04.587Z,23.4
2022-10-23T13:45:04.501Z,23.3
2022-10-23T14:00:04.366Z,23.3
2022-10-23T14:30:04.145Z,23.4
2022-10-23T14:45:03.603Z,23.4
2022-10-23T15:00:01.087Z,23.5
2022-10-23T15:15:02.442Z,23.5
2022-10-23T15:30:01.712Z,23.6
2022-10-23T15:45:04.446Z,23.6
2022-10-23T16:00:04.275Z,23.6
2022-10-23T16:15:04.156Z,23.7
2022-10-23T16:30:03.578Z,23.7
2022-10-23T16:45:01.649Z,23.7
2022-10-23T17:00:03.371Z,23.8
2022-10-23T17:15:04.441Z,23.8
2022-10-23T17:30:05.367Z,23.8
2022-10-23T17:45:03.649Z,23.8
2022-10-23T18:00:03.080Z,23.8
2022-10-23T18:15:05.107Z,23.8
2022-10-23T18:30:02.393Z,23.7
2022-10-23T18:45:04.618Z,23.7
2022-10-23T19:00:01.496Z,23.7
2022-10-23T19:15:05.253Z,23.8
2022-10-23T19:30:01.563Z,23.8
2022-10-23T20:00:05.661Z,23.7
2022-10-23T20:15:01.386Z,23.7
2022-10-23T20:30:04.603Z,23.7
2022-10-23T20:45:01.368Z,23.7
2022-10-23T21:00:02.169Z,23.6
2022-10-23T21:15:02.324Z,23.5
2022-10-23T21:30:01.530Z,23.5
2022-10-23T21:45:04.325Z,23.4
2022-10-23T22:00:04.226Z,23.3
2022-10-23T22:15:02.604Z,23.3
2022-10-23T22:30:02.228Z,23.2
2022-10-23T22:45:05.375Z,23.2
2022-10-23T23:00:05.116Z,23.2
2022-10-23T23:15:05.489Z,23.2
2022-10-23T23:45:04.533Z,23.1
